createdAt,value
2018-09-11T00:00:10.239Z,91.54
2018-09-11T00:01:10.170Z,91.16
2018-09-11T00:02:10.087Z,90.88
2018-09-11T00:03:10.018Z,89.92
2018-09-11T00:04:09.937Z,90.39
2018-09-11T00:05:09.871Z,90.88
2018-09-11T00:06:09.791Z,91.83
2018-09-11T00:07:09.714Z,92.30
2018-09-11T00:08:09.630Z,92.88
2018-09-11T00:09:09.566Z,92.88
2018-09-11T00:10:09.480Z,93.55
2018-09-11T00:11:09.411Z,93.74
2018-09-11T00:12:09.334Z,93.26
2018-09-11T00:13:09.262Z,92.88
2018-09-11T00:14:09.179Z,93.74
2018-09-11T00:15:09.109Z,93.84
2018-09-11T00:16:09.026Z,94.31
2018-09-11T00:17:08.957Z,94.70
2018-09-11T00:18:08.881Z,94.70
2018-09-11T00:19:08.806Z,94.51
2018-09-11T00:20:08.725Z,94.98
2018-09-11T00:21:08.654Z,94.98
2018-09-11T00:22:08.569Z,94.98
2018-09-11T00:23:08.501Z,95.07
2018-09-11T00:24:08.422Z,95.46
2018-09-11T00:25:08.351Z,95.46
2018-09-11T00:26:08.270Z,94.89
2018-09-11T00:27:08.200Z,94.51
2018-09-11T00:28:08.120Z,94.60
2018-09-11T00:29:08.053Z,94.98
2018-09-11T00:30:07.963Z,94.79
2018-09-11T00:31:07.895Z,94.79
2018-09-11T00:32:07.811Z,94.41
2018-09-11T00:33:07.744Z,93.93
2018-09-11T00:34:07.663Z,92.30
2018-09-11T00:35:07.592Z,92.11
2018-09-11T00:36:07.508Z,91.83
2018-09-11T00:37:07.441Z,92.30
2018-09-11T00:38:07.358Z,93.45
2018-09-11T00:39:07.289Z,94.70
2018-09-11T00:40:07.206Z,93.74
2018-09-11T00:41:07.138Z,94.22
2018-09-11T00:42:07.055Z,94.70
2018-09-11T00:43:06.989Z,94.79
2018-09-11T00:44:06.902Z,95.07
2018-09-11T00:45:06.843Z,95.56
2018-09-11T00:46:06.751Z,96.03
2018-09-11T00:47:06.682Z,96.22
2018-09-11T00:48:06.596Z,96.03
2018-09-11T00:49:06.530Z,97.37
2018-09-11T00:50:06.445Z,96.51
2018-09-11T00:51:06.377Z,96.80
2018-09-11T00:52:06.296Z,96.80
2018-09-11T00:53:06.226Z,96.32
2018-09-11T00:54:06.143Z,95.84
2018-09-11T00:55:06.074Z,95.36
2018-09-11T00:56:05.991Z,95.46
2018-09-11T00:57:05.921Z,94.41
2018-09-11T00:58:05.838Z,94.31
2018-09-11T00:59:05.767Z,93.93
2018-09-11T01:00:05.687Z,94.51
2018-09-11T01:01:05.620Z,94.79
2018-09-11T01:02:05.537Z,95.84
2018-09-11T01:03:05.467Z,96.22
2018-09-11T01:04:05.382Z,96.89
2018-09-11T01:05:05.319Z,96.61
2018-09-11T01:06:05.231Z,96.99
2018-09-11T01:07:05.158Z,96.70
2018-09-11T01:08:05.081Z,97.28
2018-09-11T01:09:05.015Z,97.56
2018-09-11T01:10:04.930Z,97.37
2018-09-11T01:11:04.859Z,97.08
2018-09-11T01:12:04.776Z,96.51
2018-09-11T01:13:04.708Z,96.51
2018-09-11T01:14:04.619Z,96.80
2018-09-11T01:15:04.552Z,96.89
2018-09-11T01:16:04.472Z,96.70
2018-09-11T01:17:04.406Z,96.51
2018-09-11T01:18:04.319Z,95.46
2018-09-11T01:19:04.253Z,95.94
2018-09-11T01:20:04.168Z,96.03
2018-09-11T01:21:04.102Z,95.75
2018-09-11T01:22:04.016Z,95.46
2018-09-11T01:23:03.947Z,95.46
2018-09-11T01:24:03.862Z,95.84
2018-09-11T01:25:03.799Z,95.94
2018-09-11T01:26:03.715Z,95.84
2018-09-11T01:27:03.649Z,95.27
2018-09-11T01:28:03.565Z,95.65
2018-09-11T01:29:03.490Z,96.51
2018-09-11T01:30:03.407Z,96.80
2018-09-11T01:31:03.347Z,96.89
2018-09-11T01:32:03.255Z,96.89
2018-09-11T01:33:03.196Z,96.70
2018-09-11T01:34:03.102Z,97.08
2018-09-11T01:35:03.041Z,97.56
2018-09-11T01:36:02.952Z,97.94
2018-09-11T01:37:02.884Z,98.33
2018-09-11T01:38:02.804Z,98.13
2018-09-11T01:39:02.732Z,98.33
2018-09-11T01:40:02.647Z,98.80
2018-09-11T01:41:02.577Z,98.42
2018-09-11T01:42:02.495Z,98.52
2018-09-11T01:43:02.430Z,98.99
2018-09-11T01:44:02.343Z,99.19
2018-09-11T01:45:02.278Z,98.80
2018-09-11T01:46:02.191Z,98.61
2018-09-11T01:47:02.121Z,97.08
2018-09-11T01:48:02.042Z,97.85
2018-09-11T01:49:01.973Z,97.47
2018-09-11T01:50:01.887Z,96.89
2018-09-11T01:51:01.819Z,96.08
2018-09-11T01:52:01.741Z,96.08
2018-09-11T01:53:01.668Z,96.08
2018-09-11T01:54:01.582Z,96.37
2018-09-11T01:55:01.517Z,96.75
2018-09-11T01:56:01.434Z,97.52
2018-09-11T01:57:01.366Z,98.47
2018-09-11T01:58:01.282Z,99.14
2018-09-11T01:59:01.214Z,98.85
2018-09-11T02:00:01.128Z,97.99
2018-09-11T02:01:01.061Z,96.99
2018-09-11T02:02:00.984Z,95.94
2018-09-11T02:03:00.906Z,94.51
2018-09-11T02:04:00.823Z,94.02
2018-09-11T02:05:00.756Z,92.83
2018-09-11T02:06:00.671Z,92.26
2018-09-11T02:07:00.604Z,92.97
2018-09-11T02:08:00.518Z,94.36
2018-09-11T02:09:00.452Z,93.12
2018-09-11T02:10:00.365Z,92.83
2018-09-11T02:11:00.297Z,93.79
2018-09-11T02:12:00.213Z,94.46
2018-09-11T02:13:00.145Z,96.84
2018-09-11T02:14:00.067Z,98.08
2018-09-11T02:14:59.991Z,99.14
2018-09-11T02:15:59.909Z,99.71
2018-09-11T02:16:59.844Z,99.99
2018-09-11T02:17:59.764Z,99.99
2018-09-11T02:18:59.689Z,99.99
2018-09-11T02:19:59.604Z,99.99
2018-09-11T02:20:59.543Z,99.99
2018-09-11T02:21:59.452Z,99.99
2018-09-11T02:22:59.385Z,99.99
2018-09-11T02:23:59.300Z,99.99
2018-09-11T02:24:59.246Z,99.99
2018-09-11T02:25:59.147Z,99.99
2018-09-11T02:26:59.083Z,99.99
2018-09-11T02:27:58.994Z,99.99
2018-09-11T02:28:58.977Z,99.99
2018-09-11T02:29:58.842Z,99.99
2018-09-11T02:30:58.772Z,99.99
2018-09-11T02:31:58.692Z,99.99
2018-09-11T02:32:58.624Z,99.99
2018-09-11T02:33:58.539Z,99.99
2018-09-11T02:34:58.465Z,99.99
2018-09-11T02:35:58.387Z,99.99
2018-09-11T02:36:58.315Z,99.99
2018-09-11T02:37:58.229Z,99.99
2018-09-11T02:38:58.163Z,99.99
2018-09-11T02:39:58.084Z,99.99
2018-09-11T02:40:58.014Z,99.99
2018-09-11T02:41:57.926Z,99.99
2018-09-11T02:42:57.859Z,99.43
2018-09-11T02:43:57.774Z,97.23
2018-09-11T02:44:57.707Z,96.56
2018-09-11T02:45:57.625Z,97.13
2018-09-11T02:46:57.555Z,96.46
2018-09-11T02:47:57.474Z,95.61
2018-09-11T02:48:57.405Z,94.74
2018-09-11T02:49:57.320Z,94.79
2018-09-11T02:50:57.249Z,96.51
2018-09-11T02:51:57.165Z,97.94
2018-09-11T02:52:57.097Z,96.89
2018-09-11T02:53:57.015Z,95.17
2018-09-11T02:54:56.956Z,93.65
2018-09-11T02:55:56.862Z,93.55
2018-09-11T02:56:56.796Z,94.70
2018-09-11T02:57:56.704Z,96.80
2018-09-11T02:58:56.642Z,96.03
2018-09-11T02:59:56.555Z,95.75
2018-09-11T03:00:56.484Z,95.75
2018-09-11T03:01:56.403Z,95.75
2018-09-11T03:02:56.331Z,95.94
2018-09-11T03:03:56.250Z,97.08
2018-09-11T03:04:56.181Z,96.98
2018-09-11T03:05:56.097Z,96.61
2018-09-11T03:06:56.026Z,95.08
2018-09-11T03:07:55.944Z,95.94
2018-09-11T03:08:55.876Z,96.98
2018-09-11T03:09:55.791Z,97.03
2018-09-11T03:10:55.729Z,97.52
2018-09-11T03:11:55.638Z,97.99
2018-09-11T03:12:55.572Z,96.94
2018-09-11T03:13:55.484Z,96.84
2018-09-11T03:14:55.415Z,96.66
2018-09-11T03:15:55.332Z,96.84
2018-09-11T03:16:55.263Z,96.66
2018-09-11T03:17:55.176Z,95.70
2018-09-11T03:18:55.117Z,95.98
2018-09-11T03:19:55.027Z,95.12
2018-09-11T03:20:54.957Z,95.12
2018-09-11T03:21:54.876Z,94.79
2018-09-11T03:22:54.805Z,94.22
2018-09-11T03:23:54.721Z,93.55
2018-09-11T03:24:54.654Z,93.74
2018-09-11T03:25:54.568Z,93.74
2018-09-11T03:26:54.500Z,93.45
2018-09-11T03:27:54.414Z,93.74
2018-09-11T03:28:54.346Z,94.02
2018-09-11T03:29:54.260Z,93.74
2018-09-11T03:30:54.196Z,94.12
2018-09-11T03:31:54.110Z,94.60
2018-09-11T03:32:54.042Z,93.93
2018-09-11T03:33:53.957Z,93.93
2018-09-11T03:34:53.887Z,92.50
2018-09-11T03:35:53.806Z,92.11
2018-09-11T03:36:53.739Z,91.93
2018-09-11T03:37:53.654Z,91.93
2018-09-11T03:38:53.625Z,92.02
2018-09-11T03:39:53.502Z,92.21
2018-09-11T03:40:53.433Z,91.74
2018-09-11T03:41:53.346Z,92.02
2018-09-11T03:42:53.280Z,90.97
2018-09-11T03:43:53.255Z,90.49
2018-09-11T03:44:53.126Z,89.63
2018-09-11T03:45:53.053Z,89.34
2018-09-11T03:46:52.967Z,89.73
2018-09-11T03:47:52.975Z,89.92
2018-09-11T03:48:52.813Z,90.39
2018-09-11T03:49:52.743Z,91.25
2018-09-11T03:50:52.662Z,92.07
2018-09-11T03:51:52.694Z,92.26
2018-09-11T03:52:52.508Z,92.83
2018-09-11T03:53:52.502Z,93.12
2018-09-11T03:54:52.356Z,93.12
2018-09-11T03:55:52.310Z,93.88
2018-09-11T03:56:52.209Z,94.27
2018-09-11T03:57:52.225Z,94.51
2018-09-11T03:58:52.053Z,92.93
2018-09-11T03:59:52.030Z,91.59
2018-09-11T04:00:51.898Z,92.07
2018-09-11T04:01:51.838Z,91.88
2018-09-11T04:02:51.742Z,92.07
2018-09-11T04:03:51.750Z,93.50
2018-09-11T04:04:51.593Z,93.79
2018-09-11T04:05:51.560Z,94.93
2018-09-11T04:06:51.441Z,95.70
2018-09-11T04:07:51.469Z,96.80
2018-09-11T04:08:51.291Z,96.61
2018-09-11T04:09:51.281Z,96.61
2018-09-11T04:10:51.142Z,97.75
2018-09-11T04:11:51.086Z,98.32
2018-09-11T04:12:50.982Z,98.13
2018-09-11T04:13:50.998Z,98.32
2018-09-11T04:14:50.828Z,98.03
2018-09-11T04:15:50.806Z,98.13
2018-09-11T04:16:50.677Z,97.94
2018-09-11T04:17:50.716Z,98.52
2018-09-11T04:18:50.523Z,98.90
2018-09-11T04:19:50.526Z,98.90
2018-09-11T04:20:50.369Z,99.18
2018-09-11T04:21:50.335Z,97.56
2018-09-11T04:22:50.227Z,95.27
2018-09-11T04:23:50.245Z,94.22
2018-09-11T04:24:50.064Z,94.41
2018-09-11T04:25:50.126Z,93.84
2018-09-11T04:26:49.914Z,94.60
2018-09-11T04:27:49.861Z,95.27
2018-09-11T04:28:49.760Z,96.61
2018-09-11T04:29:49.779Z,97.66
2018-09-11T04:30:49.624Z,97.85
2018-09-11T04:31:49.582Z,97.75
2018-09-11T04:32:49.453Z,98.71
2018-09-11T04:33:49.494Z,98.71
2018-09-11T04:34:49.297Z,97.99
2018-09-11T04:35:49.300Z,97.80
2018-09-11T04:36:49.149Z,93.70
2018-09-11T04:37:49.109Z,92.55
2018-09-11T04:38:48.994Z,93.70
2018-09-11T04:39:49.018Z,94.84
2018-09-11T04:40:48.841Z,95.79
2018-09-11T04:41:48.829Z,96.37
2018-09-11T04:42:48.740Z,96.84
2018-09-11T04:43:48.637Z,97.32
2018-09-11T04:44:48.536Z,97.56
2018-09-11T04:45:48.551Z,97.89
2018-09-11T04:46:48.380Z,98.23
2018-09-11T04:47:48.357Z,99.08
2018-09-11T04:48:48.226Z,99.99
2018-09-11T04:49:48.160Z,99.99
2018-09-11T04:50:48.073Z,99.85
2018-09-11T04:51:48.003Z,99.99
2018-09-11T04:52:47.927Z,99.76
2018-09-11T04:53:47.886Z,99.99
2018-09-11T04:54:47.767Z,99.99
2018-09-11T04:55:47.799Z,99.23
2018-09-11T04:56:47.679Z,98.57
2018-09-11T04:57:47.542Z,98.37
2018-09-11T04:58:47.510Z,98.75
2018-09-11T04:59:47.385Z,98.47
2018-09-11T05:00:47.325Z,97.66
2018-09-11T05:01:47.239Z,97.85
2018-09-11T05:02:47.228Z,97.28
2018-09-11T05:03:47.079Z,96.99
2018-09-11T05:04:47.018Z,96.89
2018-09-11T05:05:46.926Z,96.32
2018-09-11T05:06:46.944Z,96.32
2018-09-11T05:07:46.772Z,96.03
2018-09-11T05:08:46.756Z,95.94
2018-09-11T05:09:46.617Z,96.32
2018-09-11T05:10:46.551Z,95.65
2018-09-11T05:11:46.464Z,95.56
2018-09-11T05:12:46.477Z,95.46
2018-09-11T05:13:46.311Z,95.56
2018-09-11T05:14:51.006Z,95.07
2018-09-11T05:15:46.159Z,94.93
2018-09-11T05:16:46.197Z,94.65
2018-09-11T05:17:46.009Z,94.36
2018-09-11T05:18:45.936Z,94.36
2018-09-11T05:19:45.850Z,94.07
2018-09-11T05:20:46.247Z,93.98
2018-09-11T05:21:45.696Z,94.17
2018-09-11T05:22:45.726Z,94.36
2018-09-11T05:23:45.548Z,93.98
2018-09-11T05:24:45.533Z,93.79
2018-09-11T05:25:45.394Z,94.17
2018-09-11T05:26:45.344Z,93.60
2018-09-11T05:27:45.242Z,93.79
2018-09-11T05:28:45.182Z,93.79
2018-09-11T05:29:45.089Z,93.79
2018-09-11T05:30:45.027Z,93.88
2018-09-11T05:31:44.968Z,94.02
2018-09-11T05:32:44.862Z,93.35
2018-09-11T05:33:44.793Z,92.97
2018-09-11T05:34:44.713Z,93.16
2018-09-11T05:35:44.633Z,92.97
2018-09-11T05:36:44.592Z,93.07
2018-09-11T05:37:44.481Z,93.16
2018-09-11T05:38:44.504Z,93.07
2018-09-11T05:39:44.327Z,92.59
2018-09-11T05:40:44.317Z,92.30
2018-09-11T05:41:44.179Z,92.21
2018-09-11T05:42:44.121Z,91.83
2018-09-11T05:43:44.022Z,91.83
2018-09-11T05:44:44.036Z,92.11
2018-09-11T05:45:43.869Z,92.59
2018-09-11T05:46:43.839Z,92.21
2018-09-11T05:47:43.715Z,92.30
2018-09-11T05:48:43.755Z,92.30
2018-09-11T05:49:43.567Z,91.87
2018-09-11T05:50:43.562Z,91.83
2018-09-11T05:51:43.414Z,91.92
2018-09-11T05:52:43.373Z,91.92
2018-09-11T05:53:43.263Z,91.20
2018-09-11T05:54:43.185Z,91.68
2018-09-11T05:55:43.187Z,91.01
2018-09-11T05:56:43.029Z,91.30
2018-09-11T05:57:42.996Z,91.01
2018-09-11T05:58:42.882Z,90.82
2018-09-11T05:59:42.913Z,91.30
2018-09-11T06:00:42.729Z,90.53
2018-09-11T06:01:42.720Z,90.82
2018-09-11T06:02:42.589Z,90.53
2018-09-11T06:03:42.526Z,90.82
2018-09-11T06:04:42.427Z,90.72
2018-09-11T06:05:42.464Z,89.90
2018-09-11T06:06:42.274Z,89.90
2018-09-11T06:07:42.249Z,89.90
2018-09-11T06:08:42.149Z,89.90
2018-09-11T06:09:42.160Z,88.95
2018-09-11T06:10:41.973Z,89.52
2018-09-11T06:11:41.901Z,88.95
2018-09-11T06:12:41.821Z,88.95
2018-09-11T06:13:41.776Z,89.23
2018-09-11T06:14:41.672Z,89.81
2018-09-11T06:15:41.688Z,89.81
2018-09-11T06:16:41.515Z,89.72
2018-09-11T06:17:41.497Z,89.33
2018-09-11T06:18:41.368Z,88.85
2018-09-11T06:19:41.412Z,89.62
2018-09-11T06:20:41.213Z,89.14
2018-09-11T06:21:41.219Z,88.47
2018-09-11T06:22:41.062Z,88.56
2018-09-11T06:23:41.026Z,88.99
2018-09-11T06:24:40.910Z,88.99
2018-09-11T06:25:40.988Z,87.94
2018-09-11T06:26:40.760Z,87.94
2018-09-11T06:27:40.742Z,87.55
2018-09-11T06:28:40.611Z,87.84
2018-09-11T06:29:40.549Z,87.84
2018-09-11T06:30:40.461Z,87.65
2018-09-11T06:31:40.385Z,87.46
2018-09-11T06:32:40.310Z,86.98
2018-09-11T06:33:40.279Z,87.17
2018-09-11T06:34:40.155Z,86.93
2018-09-11T06:35:40.188Z,86.07
2018-09-11T06:36:40.005Z,86.16
2018-09-11T06:37:39.994Z,85.97
2018-09-11T06:38:39.855Z,86.07
2018-09-11T06:39:39.807Z,85.68
2018-09-11T06:40:39.703Z,85.88
2018-09-11T06:41:39.717Z,85.11
2018-09-11T06:42:39.554Z,85.30
2018-09-11T06:43:39.526Z,84.63
2018-09-11T06:44:39.443Z,84.15
2018-09-11T06:45:39.325Z,84.44
2018-09-11T06:46:39.343Z,84.09
2018-09-11T06:47:39.172Z,83.91
2018-09-11T06:48:39.153Z,83.33
2018-09-11T06:49:39.024Z,83.42
2018-09-11T06:50:39.064Z,84.77
2018-09-11T06:51:38.876Z,84.09
2018-09-11T06:52:38.871Z,83.33
2018-09-11T06:53:38.724Z,83.14
2018-09-11T06:54:38.719Z,83.04
2018-09-11T06:55:38.574Z,82.56
2018-09-11T06:56:38.507Z,83.14
2018-09-11T06:57:38.429Z,82.85
2018-09-11T06:58:38.401Z,83.23
2018-09-11T06:59:38.277Z,82.60
2018-09-11T07:00:38.368Z,82.89
2018-09-11T07:01:38.122Z,82.21
2018-09-11T07:02:38.122Z,82.03
2018-09-11T07:03:37.971Z,82.31
2018-09-11T07:04:37.931Z,82.41
2018-09-11T07:05:37.822Z,81.64
2018-09-11T07:06:37.844Z,82.21
2018-09-11T07:07:37.677Z,82.21
2018-09-11T07:08:37.692Z,82.89
2018-09-11T07:09:37.561Z,82.64
2018-09-11T07:10:37.564Z,81.49
2018-09-11T07:11:37.377Z,82.26
2018-09-11T07:12:37.372Z,81.40
2018-09-11T07:13:37.221Z,81.10
2018-09-11T07:14:37.181Z,80.15
2018-09-11T07:15:37.187Z,80.15
2018-09-11T07:16:37.001Z,79.57
2018-09-11T07:17:36.997Z,79.47
2018-09-11T07:18:36.851Z,79.38
2018-09-11T07:19:36.814Z,79.57
2018-09-11T07:20:36.703Z,78.55
2018-09-11T07:21:36.717Z,79.22
2018-09-11T07:22:36.558Z,79.03
2018-09-11T07:23:36.524Z,79.61
2018-09-11T07:24:36.405Z,79.42
2018-09-11T07:25:36.438Z,79.52
2018-09-11T07:26:36.255Z,79.75
2018-09-11T07:27:36.251Z,78.88
2018-09-11T07:28:36.107Z,78.02
2018-09-11T07:29:36.033Z,76.57
2018-09-11T07:30:35.957Z,76.86
2018-09-11T07:31:35.964Z,76.57
2018-09-11T07:32:35.811Z,76.39
2018-09-11T07:33:35.777Z,76.42
2018-09-11T07:34:35.660Z,76.90
2018-09-11T07:35:35.689Z,75.07
2018-09-11T07:36:35.515Z,74.98
2018-09-11T07:37:35.468Z,74.73
2018-09-11T07:38:35.367Z,74.73
2018-09-11T07:39:35.374Z,75.21
2018-09-11T07:40:35.216Z,74.92
2018-09-11T07:41:35.184Z,74.73
2018-09-11T07:42:35.069Z,74.73
2018-09-11T07:43:35.011Z,73.96
2018-09-11T07:44:34.923Z,73.96
2018-09-11T07:45:34.986Z,73.22
2018-09-11T07:46:34.776Z,73.22
2018-09-11T07:47:34.711Z,73.13
2018-09-11T07:48:34.628Z,72.17
2018-09-11T07:49:34.560Z,71.69
2018-09-11T07:50:34.491Z,71.40
2018-09-11T07:51:34.415Z,71.69
2018-09-11T07:52:34.392Z,70.76
2018-09-11T07:53:34.269Z,71.04
2018-09-11T07:54:34.190Z,70.95
2018-09-11T07:55:34.122Z,71.28
2018-09-11T07:56:34.040Z,70.79
2018-09-11T07:57:34.028Z,69.45
2018-09-11T07:58:33.892Z,69.19
2018-09-11T07:59:33.825Z,68.32
2018-09-11T08:00:33.750Z,66.97
2018-09-11T08:01:33.682Z,66.78
2018-09-11T08:02:33.603Z,66.39
2018-09-11T08:03:33.536Z,66.91
2018-09-11T08:04:33.459Z,66.14
2018-09-11T08:05:33.399Z,65.85
2018-09-11T08:06:33.309Z,65.11
2018-09-11T08:07:33.248Z,62.79
2018-09-11T08:08:33.167Z,63.28
2018-09-11T08:09:33.143Z,63.76
2018-09-11T08:10:33.022Z,63.40
2018-09-11T08:11:32.958Z,63.12
2018-09-11T08:12:32.879Z,62.73
2018-09-11T08:13:32.809Z,62.92
2018-09-11T08:14:32.784Z,63.50
2018-09-11T08:15:32.661Z,62.63
2018-09-11T08:16:32.777Z,62.76
2018-09-11T08:17:32.519Z,61.22
2018-09-11T08:18:32.505Z,61.70
2018-09-11T08:19:32.389Z,61.60
2018-09-11T08:20:32.416Z,60.16
2018-09-11T08:21:32.230Z,60.35
2018-09-11T08:22:32.226Z,60.16
2018-09-11T08:23:32.087Z,60.54
2018-09-11T08:24:32.137Z,60.83
2018-09-11T08:25:31.944Z,60.25
2018-09-11T08:26:31.947Z,60.28
2018-09-11T08:27:31.804Z,59.99
2018-09-11T08:28:31.759Z,59.60
2018-09-11T08:29:31.660Z,59.22
2018-09-11T08:30:31.664Z,59.31
2018-09-11T08:31:31.521Z,59.80
2018-09-11T08:32:31.475Z,58.73
2018-09-11T08:33:31.402Z,58.76
2018-09-11T08:34:31.389Z,58.95
2018-09-11T08:35:31.235Z,58.18
2018-09-11T08:36:31.196Z,58.60
2018-09-11T08:37:31.091Z,59.38
2018-09-11T08:38:31.107Z,58.24
2018-09-11T08:39:30.948Z,56.98
2018-09-11T08:40:30.918Z,55.92
2018-09-11T08:41:30.806Z,57.08
2018-09-11T08:42:30.830Z,56.21
2018-09-11T08:43:30.666Z,55.53
2018-09-11T08:44:30.593Z,55.56
2018-09-11T08:45:30.524Z,55.36
2018-09-11T08:46:30.562Z,55.27
2018-09-11T08:47:30.385Z,55.76
2018-09-11T08:48:30.313Z,54.52
2018-09-11T08:49:30.262Z,54.33
2018-09-11T08:50:30.176Z,53.65
2018-09-11T08:51:30.102Z,53.65
2018-09-11T08:52:30.064Z,53.55
2018-09-11T08:53:29.961Z,51.81
2018-09-11T08:54:29.990Z,50.94
2018-09-11T08:55:29.822Z,52.17
2018-09-11T08:56:29.805Z,52.20
2018-09-11T08:57:29.682Z,53.45
2018-09-11T08:58:29.775Z,54.91
2018-09-11T08:59:29.540Z,54.52
2018-09-11T09:00:29.474Z,52.20
2018-09-11T09:01:29.428Z,51.90
2018-09-11T09:02:29.333Z,51.90
2018-09-11T09:03:29.341Z,52.20
2018-09-11T09:04:29.198Z,50.65
2018-09-11T09:05:29.156Z,50.48
2018-09-11T09:06:29.054Z,50.29
2018-09-11T09:07:29.063Z,52.12
2018-09-11T09:08:28.921Z,50.38
2018-09-11T09:09:28.967Z,49.70
2018-09-11T09:10:28.778Z,50.35
2018-09-11T09:11:28.879Z,50.67
2018-09-11T09:12:28.637Z,50.19
2018-09-11T09:13:28.689Z,50.96
2018-09-11T09:14:28.500Z,50.57
2018-09-11T09:15:28.475Z,49.90
2018-09-11T09:16:28.359Z,49.02
2018-09-11T09:17:28.303Z,50.21
2018-09-11T09:18:28.226Z,49.51
2018-09-11T09:19:28.162Z,49.63
2018-09-11T09:20:28.083Z,50.60
2018-09-11T09:21:28.026Z,49.63
2018-09-11T09:22:27.946Z,48.95
2018-09-11T09:23:27.886Z,49.92
2018-09-11T09:24:27.810Z,50.21
2018-09-11T09:25:27.746Z,50.70
2018-09-11T09:26:27.669Z,50.02
2018-09-11T09:27:27.621Z,49.82
2018-09-11T09:28:27.534Z,49.85
2018-09-11T09:29:27.471Z,50.14
2018-09-11T09:30:27.394Z,47.91
2018-09-11T09:31:27.337Z,48.10
2018-09-11T09:32:27.256Z,48.20
2018-09-11T09:33:27.196Z,47.42
2018-09-11T09:34:27.122Z,47.03
2018-09-11T09:35:27.057Z,47.13
2018-09-11T09:36:27.063Z,47.83
2018-09-11T09:37:26.923Z,49.49
2018-09-11T09:38:26.847Z,49.29
2018-09-11T09:39:26.787Z,48.13
2018-09-11T09:40:26.712Z,47.64
2018-09-11T09:41:26.648Z,47.66
2018-09-11T09:42:26.574Z,47.74
2018-09-11T09:43:26.512Z,46.98
2018-09-11T09:44:26.444Z,46.28
2018-09-11T09:45:26.376Z,46.58
2018-09-11T09:46:26.307Z,45.61
2018-09-11T09:47:26.241Z,47.16
2018-09-11T09:48:26.172Z,48.03
2018-09-11T09:49:26.212Z,47.16
2018-09-11T09:50:26.027Z,46.09
2018-09-11T09:51:26.020Z,47.45
2018-09-11T09:52:25.893Z,46.79
2018-09-11T09:53:25.934Z,46.41
2018-09-11T09:54:25.754Z,46.38
2018-09-11T09:55:25.739Z,45.92
2018-09-11T09:56:25.618Z,46.79
2018-09-11T09:57:25.649Z,46.01
2018-09-11T09:58:25.492Z,45.82
2018-09-11T09:59:25.458Z,45.04
2018-09-11T10:00:25.350Z,45.24
2018-09-11T10:01:25.368Z,45.04
2018-09-11T10:02:25.218Z,44.56
2018-09-11T10:03:25.179Z,43.98
2018-09-11T10:04:25.079Z,45.34
2018-09-11T10:05:25.090Z,45.62
2018-09-11T10:06:24.944Z,45.34
2018-09-11T10:07:24.897Z,44.95
2018-09-11T10:08:24.809Z,45.53
2018-09-11T10:09:24.807Z,44.95
2018-09-11T10:10:24.673Z,45.53
2018-09-11T10:11:24.719Z,45.53
2018-09-11T10:12:24.537Z,44.56
2018-09-11T10:13:24.472Z,43.88
2018-09-11T10:14:24.434Z,43.80
2018-09-11T10:15:24.338Z,45.84
2018-09-11T10:16:24.343Z,45.17
2018-09-11T10:17:24.204Z,44.38
2018-09-11T10:18:24.140Z,44.29
2018-09-11T10:19:24.160Z,43.51
2018-09-11T10:20:24.001Z,43.22
2018-09-11T10:21:23.970Z,44.00
2018-09-11T10:22:23.867Z,43.73
2018-09-11T10:23:23.795Z,44.89
2018-09-11T10:24:23.729Z,43.73
2018-09-11T10:25:23.759Z,44.12
2018-09-11T10:26:23.592Z,44.12
2018-09-11T10:27:23.569Z,43.44
2018-09-11T10:28:23.466Z,42.76
2018-09-11T10:29:23.479Z,44.12
2018-09-11T10:30:23.327Z,44.33
2018-09-11T10:31:23.287Z,42.87
2018-09-11T10:32:23.195Z,41.98
2018-09-11T10:33:23.201Z,42.58
2018-09-11T10:34:23.061Z,43.26
2018-09-11T10:35:23.037Z,43.65
2018-09-11T10:36:22.919Z,43.16
2018-09-11T10:37:22.947Z,43.75
2018-09-11T10:38:22.789Z,43.16
2018-09-11T10:39:22.785Z,43.36
2018-09-11T10:40:22.656Z,41.13
2018-09-11T10:41:22.668Z,41.32
2018-09-11T10:42:22.522Z,42.10
2018-09-11T10:43:22.482Z,41.90
2018-09-11T10:44:22.396Z,42.19
2018-09-11T10:45:22.391Z,43.75
2018-09-11T10:46:22.255Z,44.16
2018-09-11T10:47:22.300Z,42.29
2018-09-11T10:48:22.125Z,42.11
2018-09-11T10:49:22.115Z,41.14
2018-09-11T10:50:21.988Z,40.66
2018-09-11T10:51:22.019Z,42.21
2018-09-11T10:52:21.852Z,40.88
2018-09-11T10:53:21.826Z,39.31
2018-09-11T10:54:21.716Z,39.69
2018-09-11T10:55:21.738Z,39.90
2018-09-11T10:56:21.589Z,40.58
2018-09-11T10:57:21.547Z,40.00
2018-09-11T10:58:21.492Z,39.41
2018-09-11T10:59:21.455Z,39.22
2018-09-11T11:00:21.373Z,39.70
2018-09-11T11:01:21.370Z,39.78
2018-09-11T11:02:21.190Z,39.59
2018-09-11T11:03:21.179Z,40.75
2018-09-11T11:04:21.055Z,41.24
2018-09-11T11:05:21.101Z,43.48
2018-09-11T11:06:20.928Z,43.50
2018-09-11T11:07:20.901Z,41.75
2018-09-11T11:08:20.794Z,40.48
2018-09-11T11:09:20.807Z,40.88
2018-09-11T11:10:20.665Z,39.80
2018-09-11T11:11:20.617Z,39.90
2018-09-11T11:12:20.527Z,40.97
2018-09-11T11:13:20.525Z,39.88
2018-09-11T11:14:20.400Z,39.59
2018-09-11T11:15:20.439Z,38.91
2018-09-11T11:16:20.268Z,39.20
2018-09-11T11:17:20.248Z,39.08
2018-09-11T11:18:20.134Z,39.37
2018-09-11T11:19:20.159Z,39.28
2018-09-11T11:20:19.999Z,39.76
2018-09-11T11:21:19.973Z,39.96
2018-09-11T11:22:19.870Z,39.37
2018-09-11T11:23:19.878Z,39.45
2018-09-11T11:24:19.732Z,38.57
2018-09-11T11:25:19.688Z,38.87
2018-09-11T11:26:19.605Z,38.87
2018-09-11T11:27:19.665Z,39.36
2018-09-11T11:28:19.467Z,39.36
2018-09-11T11:29:19.508Z,39.67
2018-09-11T11:30:19.332Z,40.44
2018-09-11T11:31:19.319Z,39.86
2018-09-11T11:32:19.210Z,40.56
2018-09-11T11:33:19.229Z,40.75
2018-09-11T11:34:19.067Z,39.88
2018-09-11T11:35:19.004Z,40.08
2018-09-11T11:36:19.201Z,41.94
2018-09-11T11:37:18.983Z,39.22
2018-09-11T11:38:18.853Z,39.61
2018-09-11T11:39:18.738Z,37.85
2018-09-11T11:40:18.763Z,38.34
2018-09-11T11:41:18.608Z,37.95
2018-09-11T11:42:18.618Z,39.70
2018-09-11T11:43:18.474Z,40.19
2018-09-11T11:44:18.486Z,37.48
2018-09-11T11:45:18.341Z,35.71
2018-09-11T11:46:18.293Z,37.08
2018-09-11T11:47:18.208Z,37.85
2018-09-11T11:48:18.197Z,38.73
2018-09-11T11:49:18.076Z,38.26
2018-09-11T11:50:18.114Z,38.85
2018-09-11T11:51:17.943Z,39.24
2018-09-11T11:52:17.924Z,39.43
2018-09-11T11:53:17.814Z,38.36
2018-09-11T11:54:17.833Z,39.06
2018-09-11T11:55:17.731Z,37.21
2018-09-11T11:56:17.645Z,37.21
2018-09-11T11:57:17.547Z,36.04
2018-09-11T11:58:17.553Z,36.33
2018-09-11T11:59:17.415Z,37.21
2018-09-11T12:00:17.459Z,37.89
2018-09-11T12:01:17.305Z,38.18
2018-09-11T12:02:17.272Z,37.89
2018-09-11T12:03:17.156Z,38.10
2018-09-11T12:04:17.185Z,37.33
2018-09-11T12:05:17.022Z,36.65
2018-09-11T12:06:16.994Z,37.52
2018-09-11T12:07:16.891Z,36.16
2018-09-11T12:08:16.905Z,34.59
2018-09-11T12:09:16.763Z,34.11
2018-09-11T12:10:16.715Z,34.50
2018-09-11T12:11:16.628Z,34.58
2018-09-11T12:12:16.624Z,34.29
2018-09-11T12:13:16.499Z,35.65
2018-09-11T12:14:16.536Z,36.14
2018-09-11T12:15:16.399Z,35.94
2018-09-11T12:16:16.315Z,35.75
2018-09-11T12:17:16.346Z,35.36
2018-09-11T12:18:16.171Z,36.53
2018-09-11T12:19:16.108Z,36.43
2018-09-11T12:20:16.062Z,36.04
2018-09-11T12:21:15.974Z,35.26
2018-09-11T12:22:16.065Z,36.65
2018-09-11T12:23:15.843Z,35.77
2018-09-11T12:24:15.883Z,36.06
2018-09-11T12:25:15.710Z,34.69
2018-09-11T12:26:15.726Z,34.79
2018-09-11T12:27:15.582Z,34.50
2018-09-11T12:28:15.706Z,33.14
2018-09-11T12:29:15.451Z,32.82
2018-09-11T12:30:15.513Z,33.90
2018-09-11T12:31:15.509Z,35.55
2018-09-11T12:32:15.424Z,34.78
2018-09-11T12:33:15.188Z,35.77
2018-09-11T12:34:15.234Z,36.45
2018-09-11T12:35:15.063Z,34.59
2018-09-11T12:36:15.044Z,35.18
2018-09-11T12:37:14.932Z,34.59
2018-09-11T12:38:15.056Z,34.89
2018-09-11T12:39:14.797Z,34.40
2018-09-11T12:40:14.762Z,34.42
2018-09-11T12:41:14.665Z,34.40
2018-09-11T12:42:14.777Z,34.69
2018-09-11T12:43:14.537Z,33.33
2018-09-11T12:44:14.471Z,34.21
2018-09-11T12:45:14.594Z,34.91
2018-09-11T12:46:14.657Z,35.00
2018-09-11T12:47:14.772Z,35.69
2018-09-11T12:48:14.598Z,34.71
2018-09-11T12:49:18.820Z,35.00
2018-09-11T12:50:14.079Z,33.83
2018-09-11T12:51:14.122Z,33.06